Time;durP1;ratioP1;P1;durP2;ratioP2;P2;SDS_P1;SDS_P2;PMS_P1;PMS_P2;Temp;Humidity;BMP_temperature;BMP_pressure;BME280_temperature;BME280_humidity;BME280_pressure;Samples;Min_cycle;Max_cycle;Signal;HPM_P1;HPM_P2
2022/05/11 00:01:18;;;;;;;8.80;6.50;;;21.80;1.00;;;;;;5025777;28;20485;-84
2022/05/11 00:03:45;;;;;;;11.90;8.30;;;21.70;1.00;;;;;;5029413;28;20532;-86
2022/05/11 00:06:12;;;;;;;11.53;7.43;;;21.70;1.00;;;;;;5023235;28;20536;-85
2022/05/11 00:08:39;;;;;;;12.87;7.47;;;21.60;1.00;;;;;;5021409;28;20457;-85
2022/05/11 00:11:06;;;;;;;9.57;7.10;;;21.50;1.00;;;;;;5030253;28;21045;-84
2022/05/11 00:13:39;;;;;;;8.70;7.10;;;21.40;1.00;;;;;;5003418;28;20528;-84
2022/05/11 00:16:05;;;;;;;11.47;8.73;;;21.30;1.00;;;;;;5018994;28;20486;-86
2022/05/11 00:18:39;;;;;;;10.13;7.90;;;21.20;1.00;;;;;;5030450;28;20527;-83
2022/05/11 00:21:09;;;;;;;9.60;8.60;;;21.00;1.00;;;;;;5022844;28;20461;-86
2022/05/11 00:23:39;;;;;;;9.30;8.10;;;20.90;1.00;;;;;;5024619;28;20459;-85
2022/05/11 00:26:10;;;;;;;9.53;8.00;;;20.80;1.00;;;;;;5041843;28;20635;-86
2022/05/11 00:28:39;;;;;;;8.73;7.80;;;20.70;1.00;;;;;;5016594;28;20508;-87
2022/05/11 00:31:10;;;;;;;11.10;7.93;;;20.60;1.00;;;;;;5031934;28;20540;-83
2022/05/11 00:33:40;;;;;;;10.23;8.63;;;20.50;1.00;;;;;;5025329;28;20469;-83
2022/05/11 00:36:11;;;;;;;13.27;9.50;;;20.40;1.00;;;;;;5031802;28;20448;-83
2022/05/11 00:38:41;;;;;;;10.10;8.20;;;20.30;1.00;;;;;;5029610;28;20416;-84
2022/05/11 00:41:09;;;;;;;9.73;8.60;;;20.20;1.00;;;;;;5030043;28;20450;-84
2022/05/11 00:43:41;;;;;;;8.77;7.87;;;20.10;1.00;;;;;;5038600;28;20476;-83
2022/05/11 00:46:21;;;;;;;9.00;8.10;;;20.10;1.00;;;;;;5031373;28;20456;-84
2022/05/11 00:51:48;;;;;;;9.50;8.50;;;19.90;1.00;;;;;;5013824;28;21071;-82
2022/05/11 00:54:41;;;;;;;9.70;8.70;;;19.90;1.00;;;;;;5033913;28;20436;-82
2022/05/11 00:57:20;;;;;;;10.60;8.07;;;19.90;1.00;;;;;;5031343;28;20488;-83
2022/05/11 00:59:58;;;;;;;11.97;9.37;;;19.80;1.00;;;;;;5024671;28;20406;-83
2022/05/11 01:02:30;;;;;;;10.60;9.50;;;19.80;1.00;;;;;;5030310;28;20458;-82
2022/05/11 01:05:08;;;;;;;10.10;7.70;;;19.80;1.00;;;;;;5025523;28;20441;-86
2022/05/11 01:07:40;;;;;;;10.13;8.20;;;19.70;1.00;;;;;;5020778;28;20430;-85
2022/05/11 01:10:10;;;;;;;9.40;7.77;;;19.70;1.00;;;;;;5031903;28;20429;-84
2022/05/11 01:12:44;;;;;;;8.83;7.93;;;19.70;1.00;;;;;;5027266;22;22802;-85
2022/05/11 01:15:21;;;;;;;11.00;8.30;;;19.70;1.00;;;;;;5029164;28;20432;-83
2022/05/11 01:17:50;;;;;;;8.27;7.43;;;19.60;1.00;;;;;;5024734;28;20666;-81
2022/05/11 01:20:22;;;;;;;9.20;8.30;;;19.60;1.00;;;;;;5030778;28;20477;-84
2022/05/11 01:22:59;;;;;;;8.70;7.80;;;19.50;1.00;;;;;;5037035;28;20431;-81
2022/05/11 01:25:42;;;;;;;10.27;7.80;;;19.40;1.00;;;;;;5040181;28;20421;-79
2022/05/11 01:28:12;;;;;;;9.37;8.17;;;19.30;1.00;;;;;;5013589;28;20449;-85
2022/05/11 01:30:48;;;;;;;9.37;8.47;;;19.20;1.00;;;;;;5034572;28;20457;-81
2022/05/11 01:33:22;;;;;;;8.90;7.87;;;19.10;1.00;;;;;;5037820;28;20448;-83
2022/05/11 01:36:00;;;;;;;9.77;8.80;;;19.00;1.00;;;;;;5044204;28;20448;-83
2022/05/11 01:38:39;;;;;;;9.53;8.53;;;19.00;1.00;;;;;;5027183;28;20448;-83
2022/05/11 01:41:19;;;;;;;9.03;7.70;;;18.90;1.00;;;;;;5038590;28;20476;-86
2022/05/11 01:43:51;;;;;;;9.67;8.20;;;18.90;1.00;;;;;;5017767;28;20484;-87
2022/05/11 01:46:20;;;;;;;10.30;8.40;;;19.00;1.00;;;;;;5030361;28;20425;-81
2022/05/11 01:48:49;;;;;;;9.20;8.20;;;19.00;1.00;;;;;;5035096;28;20869;-81
2022/05/11 01:51:21;;;;;;;9.50;8.60;;;19.00;1.00;;;;;;5030863;28;20438;-82
2022/05/11 01:53:50;;;;;;;10.73;8.23;;;19.00;1.00;;;;;;5031116;28;20476;-82
2022/05/11 01:56:22;;;;;;;10.20;8.47;;;19.00;1.00;;;;;;5023549;28;20462;-84
2022/05/11 01:58:51;;;;;;;8.93;8.00;;;18.90;1.00;;;;;;5046944;28;20421;-83
2022/05/11 02:01:22;;;;;;;8.67;7.87;;;18.80;1.00;;;;;;5037627;28;20591;-83
2022/05/11 02:03:49;;;;;;;10.40;8.77;;;18.70;1.00;;;;;;5038357;28;20452;-82
2022/05/11 02:09:10;;;;;;;8.73;7.60;;;18.70;1.00;;;;;;5036662;28;21035;-84
2022/05/11 02:11:41;;;;;;;9.13;8.23;;;18.60;1.00;;;;;;5040019;28;20420;-82
2022/05/11 02:14:10;;;;;;;8.53;7.73;;;18.50;1.00;;;;;;5042848;28;20435;-83
2022/05/11 02:16:40;;;;;;;13.20;8.00;;;18.50;1.00;;;;;;5041546;28;20497;-83
2022/05/11 02:19:13;;;;;;;8.27;7.43;;;18.50;1.00;;;;;;5035297;28;20549;-83
2022/05/11 02:21:41;;;;;;;8.97;7.97;;;18.50;1.00;;;;;;5016148;28;20479;-82
2022/05/11 02:24:09;;;;;;;9.00;8.10;;;18.40;1.00;;;;;;5031380;28;20524;-83
2022/05/11 02:26:40;;;;;;;10.00;8.30;;;18.30;1.00;;;;;;5042201;28;20499;-83
2022/05/11 02:29:11;;;;;;;9.53;7.63;;;18.40;1.00;;;;;;5045766;28;20472;-88
2022/05/11 02:31:41;;;;;;;8.97;7.93;;;18.40;1.00;;;;;;5037995;28;20553;-83
2022/05/11 02:35:12;;;;;;;10.87;8.00;;;18.40;1.00;;;;;;5032251;28;20449;-84
2022/05/11 02:36:59;;;;;;;10.57;8.73;;;18.40;1.00;;;;;;5040264;28;20471;-84
2022/05/11 02:39:30;;;;;;;14.87;9.20;;;18.40;1.00;;;;;;5007225;28;20462;-82
2022/05/11 02:42:01;;;;;;;10.03;8.40;;;18.40;1.00;;;;;;5028048;28;20508;-82
2022/05/11 02:44:30;;;;;;;11.57;7.73;;;18.40;1.00;;;;;;5031815;28;20436;-83
2022/05/11 02:47:02;;;;;;;10.80;8.03;;;18.40;1.00;;;;;;5050740;28;20422;-82
2022/05/11 02:49:30;;;;;;;14.30;8.73;;;18.40;1.00;;;;;;5042863;28;21692;-83
2022/05/11 02:52:00;;;;;;;11.00;7.63;;;18.40;1.00;;;;;;5041852;28;20503;-82
2022/05/11 02:54:29;;;;;;;9.87;7.20;;;18.40;1.00;;;;;;5034740;28;25959;-87
2022/05/11 02:57:01;;;;;;;11.70;9.00;;;18.40;1.00;;;;;;5038456;28;20563;-84
2022/05/11 02:59:30;;;;;;;10.93;8.03;;;18.40;1.00;;;;;;5045289;28;20440;-83
2022/05/11 03:02:00;;;;;;;9.70;7.93;;;18.40;1.00;;;;;;5038377;28;20461;-83
2022/05/11 03:04:30;;;;;;;9.30;8.30;;;18.50;1.00;;;;;;5046426;28;20433;-80
2022/05/11 03:07:02;;;;;;;9.53;7.90;;;18.40;1.00;;;;;;5046070;28;20441;-81
2022/05/11 03:09:29;;;;;;;9.67;8.00;;;18.40;1.00;;;;;;5048471;28;20461;-82
2022/05/11 03:12:01;;;;;;;13.77;8.33;;;18.50;1.00;;;;;;5035758;28;20430;-83
2022/05/11 03:14:30;;;;;;;8.60;6.80;;;18.40;1.00;;;;;;5044511;28;20462;-83
2022/05/11 03:17:00;;;;;;;9.63;7.93;;;18.40;1.00;;;;;;5035123;28;20440;-85
2022/05/11 03:19:30;;;;;;;8.27;7.47;;;18.40;1.00;;;;;;5030262;28;20428;-83
2022/05/11 03:22:00;;;;;;;8.90;7.80;;;18.40;1.00;;;;;;5030621;28;20414;-82
2022/05/11 03:24:30;;;;;;;11.67;7.80;;;18.40;1.00;;;;;;5042172;28;20476;-83
2022/05/11 03:27:00;;;;;;;9.47;8.47;;;18.30;1.00;;;;;;5044310;28;20449;-86
2022/05/11 03:29:32;;;;;;;13.27;8.17;;;18.30;1.00;;;;;;5050089;28;20436;-83
2022/05/11 03:34:49;;;;;;;10.33;9.10;;;18.20;1.00;;;;;;5037773;28;20529;-82
2022/05/11 03:37:20;;;;;;;12.63;10.03;;;18.10;1.00;;;;;;5025659;28;20477;-88
2022/05/11 03:39:50;;;;;;;9.80;8.80;;;18.10;1.00;;;;;;5041586;28;20467;-82
2022/05/11 03:42:28;;;;;;;16.10;9.70;;;18.00;1.00;;;;;;5034781;28;20420;-85
2022/05/11 03:45:15;;;;;;;13.30;9.70;;;18.00;1.00;;;;;;5035336;28;20467;-83
2022/05/11 03:47:50;;;;;;;12.13;9.80;;;18.00;1.00;;;;;;5042565;28;20440;-85
2022/05/11 03:50:28;;;;;;;10.60;9.10;;;18.00;1.00;;;;;;5052258;28;20424;-85
2022/05/11 03:53:00;;;;;;;10.33;8.53;;;18.00;1.00;;;;;;5044367;28;20464;-81
2022/05/11 03:55:30;;;;;;;10.33;9.10;;;18.00;1.00;;;;;;5042652;28;20445;-83
2022/05/11 03:58:00;;;;;;;20.40;10.30;;;18.10;1.00;;;;;;5043377;28;20426;-85
2022/05/11 04:00:30;;;;;;;14.00;9.60;;;18.10;1.00;;;;;;5037761;28;20434;-84
2022/05/11 04:03:00;;;;;;;10.40;9.30;;;18.10;1.00;;;;;;5034322;28;20450;-83
2022/05/11 04:05:32;;;;;;;12.37;10.17;;;18.20;1.00;;;;;;5028277;28;20441;-83
2022/05/11 04:08:00;;;;;;;10.20;9.17;;;18.30;1.00;;;;;;5044223;28;20457;-82
2022/05/11 04:10:30;;;;;;;12.07;9.27;;;18.30;1.00;;;;;;5045545;28;20453;-83
2022/05/11 04:13:00;;;;;;;13.50;9.77;;;18.20;1.00;;;;;;5030172;28;20502;-82
2022/05/11 04:15:40;;;;;;;16.23;14.83;;;18.30;1.00;;;;;;5037987;28;20446;-84
2022/05/11 04:18:10;;;;;;;18.40;11.60;;;18.30;1.00;;;;;;5037630;28;20457;-84
2022/05/11 04:20:40;;;;;;;10.57;9.57;;;18.30;1.00;;;;;;5040807;28;20452;-82
2022/05/11 04:23:17;;;;;;;13.80;11.87;;;18.40;1.00;;;;;;5035550;28;20413;-82
2022/05/11 04:26:00;;;;;;;10.67;9.60;;;18.50;1.00;;;;;;5043630;28;20448;-82
2022/05/11 04:28:32;;;;;;;16.40;11.17;;;18.50;1.00;;;;;;5045676;28;20468;-86
2022/05/11 04:33:42;;;;;;;13.50;10.50;;;18.60;1.00;;;;;;4312616;26;20472;-84
2022/05/11 04:36:10;;;;;;;12.53;10.57;;;18.60;1.00;;;;;;5025778;28;20456;-82
2022/05/11 04:38:40;;;;;;;14.87;11.40;;;18.60;1.00;;;;;;5034820;28;20448;-81
2022/05/11 04:41:10;;;;;;;14.70;11.80;;;18.70;1.00;;;;;;5044614;28;20452;-84
2022/05/11 04:43:49;;;;;;;11.00;9.90;;;18.70;1.00;;;;;;5040969;28;20445;-86
2022/05/11 04:51:31;;;;;;;12.90;11.70;;;18.60;1.00;;;;;;1348414;26;20451;-78
2022/05/11 04:54:00;;;;;;;14.53;13.03;;;18.60;1.00;;;;;;5077402;28;20464;-82
2022/05/11 04:56:31;;;;;;;12.07;10.87;;;18.50;1.00;;;;;;5071609;28;20477;-81
2022/05/11 04:59:01;;;;;;;11.80;10.60;;;18.50;1.00;;;;;;5074593;28;22838;-83
2022/05/11 05:01:30;;;;;;;11.97;10.70;;;18.50;1.00;;;;;;5072867;28;20420;-81
2022/05/11 05:04:00;;;;;;;11.10;10.00;;;18.40;1.00;;;;;;5074782;28;20464;-81
2022/05/11 05:06:40;;;;;;;12.53;10.67;;;18.40;1.00;;;;;;5073240;28;21865;-80
2022/05/11 05:09:10;;;;;;;12.90;11.57;;;18.40;1.00;;;;;;5070155;28;20416;-82
2022/05/11 05:11:40;;;;;;;12.33;10.87;;;18.50;1.00;;;;;;5073767;28;20497;-80
2022/05/11 05:14:12;;;;;;;15.87;12.33;;;18.50;1.00;;;;;;5074991;28;20484;-78
2022/05/11 05:16:41;;;;;;;13.00;10.63;;;18.60;1.00;;;;;;5070187;28;20454;-84
2022/05/11 05:19:11;;;;;;;13.60;11.87;;;18.70;1.00;;;;;;5076879;28;20424;-84
2022/05/11 05:21:40;;;;;;;13.47;11.30;;;18.70;1.00;;;;;;5077295;28;20413;-82
2022/05/11 05:24:13;;;;;;;13.63;12.00;;;18.60;1.00;;;;;;5073038;28;20404;-80
2022/05/11 05:26:41;;;;;;;17.43;11.77;;;18.60;1.00;;;;;;5069576;28;20499;-80
2022/05/11 05:31:59;;;;;;;23.53;13.37;;;18.80;1.00;;;;;;5076618;28;20452;-85
2022/05/11 05:34:43;;;;;;;17.37;11.80;;;18.80;1.00;;;;;;5079053;28;20450;-82
2022/05/11 05:37:24;;;;;;;19.33;12.30;;;18.80;1.00;;;;;;5074879;28;20419;-81
2022/05/11 05:39:53;;;;;;;13.60;10.77;;;18.80;1.00;;;;;;5074665;28;20418;-82
2022/05/11 05:42:23;;;;;;;14.57;11.30;;;18.80;1.00;;;;;;5075703;28;21835;-82
2022/05/11 05:44:51;;;;;;;15.93;11.87;;;18.90;1.00;;;;;;5073683;28;20456;-81
2022/05/11 05:47:20;;;;;;;14.93;11.60;;;18.90;1.00;;;;;;5073820;28;20435;-81
2022/05/11 05:49:51;;;;;;;13.60;10.60;;;18.90;1.00;;;;;;5072148;28;20440;-80
2022/05/11 05:52:29;;;;;;;12.77;11.43;;;18.90;1.00;;;;;;5077761;28;20482;-81
2022/05/11 05:55:01;;;;;;;13.00;11.70;;;19.00;1.00;;;;;;5082864;28;20446;-82
2022/05/11 05:57:31;;;;;;;12.27;11.07;;;19.00;1.00;;;;;;5081599;28;20491;-81
2022/05/11 06:00:01;;;;;;;13.20;11.70;;;19.00;1.00;;;;;;5080669;28;20453;-81
2022/05/11 06:02:31;;;;;;;13.20;11.80;;;18.80;1.00;;;;;;5075986;28;20446;-83
2022/05/11 06:05:01;;;;;;;11.70;10.60;;;18.70;1.00;;;;;;5072004;28;20428;-81
2022/05/11 06:07:41;;;;;;;11.80;10.60;;;18.60;1.00;;;;;;5068273;28;20446;-80
2022/05/11 06:10:11;;;;;;;13.13;11.93;;;18.50;1.00;;;;;;5072484;28;20427;-83
2022/05/11 06:12:41;;;;;;;11.50;10.20;;;18.50;1.00;;;;;;5075921;27;20427;-84
2022/05/11 06:15:14;;;;;;;11.00;9.93;;;18.40;1.00;;;;;;5071950;28;20432;-83
2022/05/11 06:17:42;;;;;;;12.33;11.13;;;18.40;1.00;;;;;;5071077;28;20447;-81
2022/05/11 06:20:12;;;;;;;12.50;11.20;;;18.30;1.00;;;;;;5072632;28;20425;-81
2022/05/11 06:22:48;;;;;;;15.60;12.40;;;18.40;1.00;;;;;;5075860;28;20432;-84
2022/05/11 06:25:22;;;;;;;12.20;11.10;;;18.40;1.00;;;;;;5075856;28;20422;-80
2022/05/11 06:27:51;;;;;;;12.50;11.33;;;18.50;1.00;;;;;;5071676;28;20447;-82
2022/05/11 06:30:20;;;;;;;12.80;11.50;;;18.40;1.00;;;;;;5074589;28;20416;-81
2022/05/11 06:32:51;;;;;;;12.93;11.73;;;18.40;1.00;;;;;;5073660;28;20463;-81
2022/05/11 06:35:23;;;;;;;13.00;11.70;;;18.30;1.00;;;;;;5077511;28;20449;-79
2022/05/11 06:37:54;;;;;;;11.97;10.77;;;18.20;1.00;;;;;;5078470;28;20471;-82
2022/05/11 06:40:23;;;;;;;12.70;11.13;;;18.20;1.00;;;;;;5075736;28;20444;-81
2022/05/11 06:42:52;;;;;;;14.10;12.70;;;18.20;1.00;;;;;;5074747;27;20530;-83
2022/05/11 06:45:23;;;;;;;13.67;12.37;;;18.30;1.00;;;;;;5081964;28;20424;-80
2022/05/11 06:47:53;;;;;;;14.50;13.10;;;18.30;1.00;;;;;;5080426;28;20443;-81
2022/05/11 06:50:24;;;;;;;12.40;11.30;;;18.30;1.00;;;;;;5074144;28;20426;-81
2022/05/11 06:53:10;;;;;;;13.30;12.03;;;18.40;1.00;;;;;;5073648;28;20491;-83
2022/05/11 07:01:22;;;;;;;10.93;9.80;;;19.00;1.00;;;;;;5071875;28;20443;-82
2022/05/11 07:03:52;;;;;;;11.73;10.50;;;19.10;1.00;;;;;;5080588;28;20423;-84
2022/05/11 07:06:21;;;;;;;11.20;10.20;;;19.30;1.00;;;;;;5077811;28;20427;-84
2022/05/11 07:08:52;;;;;;;12.50;10.70;;;19.40;1.00;;;;;;5075714;28;20442;-85
2022/05/11 07:14:11;;;;;;;12.40;11.10;;;19.70;1.00;;;;;;5071500;28;20455;-87
2022/05/11 07:16:41;;;;;;;11.37;10.27;;;19.70;1.00;;;;;;5076463;28;20458;-84
2022/05/11 07:19:13;;;;;;;11.37;10.17;;;19.90;1.00;;;;;;5075389;28;20499;-80
2022/05/11 07:21:44;;;;;;;10.57;9.53;;;20.20;1.00;;;;;;5076086;28;20432;-80
2022/05/11 07:24:19;;;;;;;9.93;8.93;;;20.20;1.00;;;;;;5074895;28;20526;-83
2022/05/11 07:26:51;;;;;;;11.03;10.03;;;20.20;1.00;;;;;;5075997;28;20478;-82
2022/05/11 07:29:23;;;;;;;12.10;10.13;;;20.20;1.00;;;;;;5078196;28;20436;-83
2022/05/11 07:31:51;;;;;;;15.83;14.23;;;20.20;1.00;;;;;;5071287;28;20518;-83
2022/05/11 07:34:21;;;;;;;13.50;10.30;;;20.40;1.00;;;;;;5075407;28;20411;-82
2022/05/11 07:36:54;;;;;;;9.07;8.13;;;20.50;1.00;;;;;;5076821;28;20418;-81
2022/05/11 07:39:23;;;;;;;10.50;9.50;;;20.60;1.00;;;;;;5077338;28;20526;-83
2022/05/11 07:41:51;;;;;;;11.83;10.63;;;20.40;1.00;;;;;;5075787;28;20427;-82
2022/05/11 07:44:21;;;;;;;9.90;9.00;;;20.50;1.00;;;;;;5075001;28;20455;-83
2022/05/11 07:46:54;;;;;;;11.60;9.30;;;20.80;1.00;;;;;;5074585;28;20438;-83
2022/05/11 07:49:22;;;;;;;9.77;8.77;;;21.00;1.00;;;;;;5076635;28;20428;-83
2022/05/11 07:51:52;;;;;;;8.40;7.57;;;21.20;1.00;;;;;;5080747;28;20479;-83
2022/05/11 07:54:23;;;;;;;9.27;8.30;;;21.40;1.00;;;;;;5077127;28;20450;-80
2022/05/11 07:59:56;;;;;;;9.70;7.40;;;21.50;1.00;;;;;;5075838;28;20447;-83
2022/05/11 08:02:31;;;;;;;12.60;8.83;;;21.50;1.00;;;;;;5078768;28;20445;-84
2022/05/11 08:05:03;;;;;;;10.03;6.63;;;21.60;1.00;;;;;;5068772;28;20431;-83
2022/05/11 08:07:41;;;;;;;9.17;6.60;;;21.70;1.00;;;;;;5079114;28;20439;-84
2022/05/11 08:10:18;;;;;;;10.33;7.10;;;21.90;1.00;;;;;;5076704;28;20459;-84
2022/05/11 08:12:52;;;;;;;10.33;8.50;;;22.10;1.00;;;;;;5077637;28;20466;-81
2022/05/11 08:15:23;;;;;;;10.33;8.03;;;22.30;1.00;;;;;;5078271;28;20933;-83
2022/05/11 08:17:52;;;;;;;10.57;7.60;;;22.40;1.00;;;;;;5075928;28;20434;-83
2022/05/11 08:20:24;;;;;;;11.53;7.57;;;22.40;1.00;;;;;;5078015;28;20452;-83
2022/05/11 08:22:51;;;;;;;11.40;7.67;;;22.50;1.00;;;;;;5077340;28;20454;-84
2022/05/11 08:25:31;;;;;;;10.50;8.20;;;22.70;1.00;;;;;;5075118;28;20431;-83
2022/05/11 08:28:03;;;;;;;11.20;8.00;;;22.60;1.00;;;;;;5077333;28;20432;-82
2022/05/11 08:33:26;;;;;;;11.37;7.27;;;22.80;1.00;;;;;;5077434;28;20595;-83
2022/05/11 08:36:01;;;;;;;9.00;7.50;;;22.90;1.00;;;;;;5078558;28;20468;-83
2022/05/11 08:38:41;;;;;;;10.60;7.90;;;23.00;1.00;;;;;;5079888;28;20467;-82
2022/05/11 08:41:32;;;;;;;9.83;7.97;;;23.40;1.00;;;;;;5077333;28;20637;-84
2022/05/11 08:44:13;;;;;;;10.40;8.20;;;23.90;1.00;;;;;;5070031;28;20424;-83
2022/05/11 08:46:51;;;;;;;9.43;7.30;;;24.10;1.00;;;;;;5077185;28;20940;-83
2022/05/11 08:49:31;;;;;;;9.93;7.30;;;24.40;1.00;;;;;;5076235;28;20448;-84
2022/05/11 08:52:04;;;;;;;11.30;8.63;;;24.70;1.00;;;;;;5073362;28;20497;-83
2022/05/11 08:54:51;;;;;;;11.53;8.40;;;24.70;1.00;;;;;;5079066;28;20429;-84
2022/05/11 08:57:28;;;;;;;11.60;8.20;;;24.50;1.00;;;;;;5077326;28;20428;-80
2022/05/11 09:00:11;;;;;;;11.57;7.97;;;24.20;1.00;;;;;;5084556;28;20470;-82
2022/05/11 09:02:54;;;;;;;13.10;9.40;;;24.20;1.00;;;;;;5078531;28;20483;-85
2022/05/11 09:05:28;;;;;;;9.87;8.47;;;24.20;1.00;;;;;;5079078;28;20435;-82
2022/05/11 09:08:13;;;;;;;14.00;8.93;;;24.50;1.00;;;;;;5081811;28;20431;-82
2022/05/11 09:10:44;;;;;;;9.60;8.60;;;24.70;1.00;;;;;;5074939;28;20435;-84
2022/05/11 09:13:18;;;;;;;10.00;9.00;;;24.80;1.00;;;;;;5076389;28;20468;-82
2022/05/11 09:16:06;;;;;;;10.47;8.60;;;24.70;1.00;;;;;;5082275;28;20495;-83
2022/05/11 09:18:43;;;;;;;11.80;8.90;;;24.80;1.00;;;;;;5062344;28;20463;-82
2022/05/11 09:21:22;;;;;;;11.90;10.50;;;25.20;1.00;;;;;;5074980;28;20464;-84
2022/05/11 09:24:04;;;;;;;12.13;9.57;;;25.70;1.00;;;;;;5087104;28;20490;-83
2022/05/11 09:26:40;;;;;;;10.30;9.27;;;25.70;1.00;;;;;;5077153;28;20439;-82
2022/05/11 09:29:25;;;;;;;11.97;10.00;;;25.70;1.00;;;;;;5083577;28;20494;-84
2022/05/11 09:31:54;;;;;;;11.07;9.87;;;25.70;1.00;;;;;;5065240;28;20500;-80
2022/05/11 09:34:33;;;;;;;11.50;9.93;;;26.00;1.00;;;;;;5079536;28;20467;-83
2022/05/11 09:37:03;;;;;;;10.77;9.67;;;26.20;1.00;;;;;;5081011;28;21379;-83
2022/05/11 09:39:33;;;;;;;13.73;10.33;;;26.60;1.00;;;;;;5081137;28;20464;-82
2022/05/11 09:42:15;;;;;;;12.30;10.60;;;26.90;1.00;;;;;;5077020;28;20601;-83
2022/05/11 09:45:03;;;;;;;11.80;10.60;;;27.10;1.00;;;;;;5080192;28;20456;-83
2022/05/11 09:47:34;;;;;;;11.73;10.53;;;27.50;1.00;;;;;;5083983;28;20489;-83
2022/05/11 09:50:23;;;;;;;11.70;10.50;;;27.60;1.00;;;;;;5086751;28;20420;-85
2022/05/11 09:53:11;;;;;;;11.97;10.50;;;27.70;1.00;;;;;;5059772;28;20420;-83
2022/05/11 09:55:41;;;;;;;14.37;12.13;;;27.70;1.00;;;;;;5078428;28;20468;-82
2022/05/11 09:58:11;;;;;;;13.67;12.10;;;28.10;1.00;;;;;;5080594;28;20431;-83
2022/05/11 10:00:43;;;;;;;12.13;10.93;;;28.10;1.00;;;;;;5061010;28;20571;-84
2022/05/11 10:03:21;;;;;;;16.10;10.73;;;28.20;1.00;;;;;;5080470;28;20423;-81
2022/05/11 10:05:58;;;;;;;13.07;11.70;;;28.30;1.00;;;;;;5077653;28;20601;-84
2022/05/11 10:08:33;;;;;;;13.73;12.17;;;28.60;1.00;;;;;;5079396;28;20466;-82
2022/05/11 10:11:16;;;;;;;13.43;12.07;;;29.50;1.00;;;;;;5083368;28;20459;-81
2022/05/11 10:13:51;;;;;;;12.43;10.27;;;30.60;1.00;;;;;;5084882;28;20471;-81
2022/05/11 10:22:25;;;;;;;12.20;10.87;;;32.00;1.00;;;;;;5081515;28;20475;-85
2022/05/11 10:25:22;;;;;;;12.30;10.20;;;31.30;1.00;;;;;;5082430;28;20518;-84
2022/05/11 10:28:11;;;;;;;10.70;9.03;;;32.30;1.00;;;;;;5082249;28;20435;-81
2022/05/11 10:30:48;;;;;;;11.67;7.90;;;34.50;1.00;;;;;;5076284;28;20508;-82
2022/05/11 10:33:41;;;;;;;10.17;8.30;;;35.50;1.00;;;;;;5079947;28;20458;-81
2022/05/11 10:36:21;;;;;;;12.27;8.60;;;35.30;1.00;;;;;;5080342;28;20485;-82
2022/05/11 10:39:11;;;;;;;10.53;7.00;;;34.40;1.00;;;;;;5083029;28;20419;-84
2022/05/11 10:41:51;;;;;;;10.37;6.87;;;34.30;1.00;;;;;;5073704;28;20571;-83
2022/05/11 10:44:51;;;;;;;10.87;7.83;;;34.90;1.00;;;;;;5076976;28;20404;-85
2022/05/11 10:47:42;;;;;;;11.30;7.47;;;35.80;1.00;;;;;;5072639;28;21426;-80
2022/05/11 10:50:23;;;;;;;11.13;7.40;;;36.20;1.00;;;;;;5072108;28;20427;-81
2022/05/11 10:53:11;;;;;;;9.53;7.37;;;35.40;1.00;;;;;;5078486;28;20408;-82
2022/05/11 10:55:52;;;;;;;8.97;5.70;;;35.60;1.00;;;;;;5076166;28;20483;-81
2022/05/11 10:58:54;;;;;;;8.33;6.50;;;36.10;1.00;;;;;;5079359;28;20985;-82
2022/05/11 11:01:22;;;;;;;15.90;6.60;;;35.90;1.00;;;;;;5076604;28;20431;-83
2022/05/11 11:04:21;;;;;;;9.07;6.33;;;35.30;1.00;;;;;;5078082;28;20486;-80
2022/05/11 11:07:14;;;;;;;9.53;6.73;;;35.80;1.00;;;;;;5071007;28;21190;-80
2022/05/11 11:10:13;;;;;;;12.50;6.13;;;34.90;1.00;;;;;;5075303;28;20447;-82
2022/05/11 11:13:23;;;;;;;11.53;7.03;;;33.80;1.00;;;;;;5072051;28;20434;-81
2022/05/11 11:15:52;;;;;;;11.17;6.47;;;32.60;1.00;;;;;;5067770;28;21205;-82
2022/05/11 11:18:32;;;;;;;8.93;6.67;;;33.40;1.00;;;;;;5079031;28;20475;-84
2022/05/11 11:21:03;;;;;;;11.03;6.47;;;33.00;1.00;;;;;;5077678;28;20428;-83
2022/05/11 11:23:40;;;;;;;11.10;5.90;;;32.10;1.00;;;;;;5076485;28;20451;-81
2022/05/11 11:26:12;;;;;;;8.80;5.97;;;32.10;1.00;;;;;;5076596;28;20657;-82
2022/05/11 11:29:21;;;;;;;10.50;4.90;;;33.20;1.00;;;;;;5083925;28;20495;-84
2022/05/11 11:32:13;;;;;;;15.67;6.03;;;34.80;1.00;;;;;;5068566;28;20415;-82
2022/05/11 11:34:44;;;;;;;11.07;5.00;;;34.90;1.00;;;;;;5081771;28;20602;-81
2022/05/11 11:37:47;;;;;;;12.40;5.90;;;33.60;1.00;;;;;;5079402;28;20404;-82
2022/05/11 11:40:29;;;;;;;9.70;5.40;;;32.90;1.00;;;;;;5082047;28;20566;-83
2022/05/11 11:43:38;;;;;;;8.80;5.03;;;33.80;1.00;;;;;;5081838;28;20533;-81
2022/05/11 11:46:05;;;;;;;8.20;5.23;;;34.40;1.00;;;;;;5077908;28;20435;-82
2022/05/11 11:48:39;;;;;;;8.07;5.30;;;34.30;1.00;;;;;;5062592;28;20518;-82
2022/05/11 11:51:32;;;;;;;10.60;5.47;;;33.40;1.00;;;;;;5078540;28;20431;-82
2022/05/11 11:54:02;;;;;;;9.53;5.30;;;32.20;1.00;;;;;;5073828;28;20605;-79
2022/05/11 11:56:54;;;;;;;9.90;5.90;;;31.50;1.00;;;;;;5071233;28;20471;-82
2022/05/11 11:59:51;;;;;;;8.83;5.00;;;32.40;1.00;;;;;;5080225;28;20450;-83
2022/05/11 12:02:32;;;;;;;9.57;4.87;;;34.70;1.00;;;;;;5076468;28;20440;-85
2022/05/11 12:05:11;;;;;;;8.57;5.07;;;35.20;1.00;;;;;;5082319;28;21097;-82
2022/05/11 12:16:23;;;;;;;8.67;4.87;;;32.90;1.00;;;;;;5075343;28;20400;-83
2022/05/11 12:18:53;;;;;;;9.20;4.20;;;33.10;1.00;;;;;;5085797;28;20431;-86
2022/05/11 12:21:34;;;;;;;8.73;4.37;;;35.10;1.00;;;;;;5079799;28;20427;-85
2022/05/11 12:24:24;;;;;;;11.50;4.73;;;35.40;1.00;;;;;;5081507;28;20419;-84
2022/05/11 12:27:01;;;;;;;8.93;4.20;;;34.40;1.00;;;;;;5077035;28;20527;-84
2022/05/11 12:30:02;;;;;;;9.53;4.57;;;33.80;1.00;;;;;;5075137;28;20427;-83
2022/05/11 12:32:33;;;;;;;10.33;4.10;;;34.10;1.00;;;;;;5077391;28;21129;-84
2022/05/11 12:35:13;;;;;;;8.83;4.00;;;35.00;1.00;;;;;;5078920;28;20427;-84
2022/05/11 12:37:54;;;;;;;9.23;4.53;;;34.30;1.00;;;;;;5079915;28;20414;-84
2022/05/11 12:40:25;;;;;;;13.70;4.87;;;33.50;1.00;;;;;;5078995;28;20419;-83
2022/05/11 12:42:54;;;;;;;8.33;4.43;;;32.70;1.00;;;;;;5073592;28;20480;-83
2022/05/11 12:45:33;;;;;;;9.40;4.20;;;32.20;1.00;;;;;;5076239;28;20420;-83
2022/05/11 12:48:04;;;;;;;9.80;4.77;;;32.70;1.00;;;;;;5077912;28;21151;-85
2022/05/11 12:50:35;;;;;;;9.30;4.60;;;33.10;1.00;;;;;;5075680;28;20487;-84
2022/05/11 12:53:11;;;;;;;9.90;4.70;;;34.30;1.00;;;;;;5077811;28;20448;-84
2022/05/11 12:55:52;;;;;;;7.97;4.07;;;35.10;1.00;;;;;;5082017;28;20495;-86
2022/05/11 12:58:23;;;;;;;16.00;4.87;;;35.00;1.00;;;;;;5078646;28;20496;-84
2022/05/11 13:01:05;;;;;;;8.23;4.00;;;34.40;1.00;;;;;;5074421;28;20423;-85
2022/05/11 13:03:35;;;;;;;9.37;4.40;;;33.60;1.00;;;;;;5076144;28;20399;-85
2022/05/11 13:06:11;;;;;;;8.80;4.77;;;33.50;1.00;;;;;;5080750;28;20404;-84
2022/05/11 13:08:44;;;;;;;9.83;4.73;;;34.40;1.00;;;;;;5080529;28;20450;-85
2022/05/11 13:11:17;;;;;;;8.10;3.97;;;34.90;1.00;;;;;;5077499;28;20432;-83
2022/05/11 13:13:54;;;;;;;13.13;5.13;;;35.30;1.00;;;;;;5079696;28;20435;-84
2022/05/11 13:16:32;;;;;;;9.47;4.70;;;35.30;1.00;;;;;;5078536;28;20440;-84
2022/05/11 13:19:13;;;;;;;8.10;4.33;;;35.90;1.00;;;;;;5077697;28;21241;-83
2022/05/11 13:21:52;;;;;;;8.13;4.43;;;36.20;1.00;;;;;;5081285;28;20551;-84
2022/05/11 13:24:45;;;;;;;9.80;5.40;;;36.30;1.00;;;;;;5074179;28;20432;-87
2022/05/11 13:27:35;;;;;;;7.10;4.10;;;35.80;1.00;;;;;;5079423;28;20433;-85
2022/05/11 13:30:12;;;;;;;11.50;4.70;;;34.90;1.00;;;;;;5077167;28;20420;-84
2022/05/11 13:32:45;;;;;;;7.17;4.23;;;34.40;1.00;;;;;;5074073;28;20449;-81
2022/05/11 13:35:32;;;;;;;9.13;4.53;;;34.90;1.00;;;;;;5062626;28;20435;-84
2022/05/11 13:38:22;;;;;;;10.10;5.00;;;34.20;1.00;;;;;;5080159;28;20427;-83
2022/05/11 13:41:02;;;;;;;11.67;5.43;;;33.40;1.00;;;;;;5076759;28;20449;-83
2022/05/11 13:43:34;;;;;;;8.93;4.33;;;32.50;1.00;;;;;;5080167;28;20431;-84
2022/05/11 13:46:05;;;;;;;8.93;5.20;;;31.90;1.00;;;;;;5084707;28;20439;-83
2022/05/11 13:48:41;;;;;;;7.80;4.90;;;31.50;1.00;;;;;;5085101;28;20463;-83
2022/05/11 13:51:21;;;;;;;10.07;4.97;;;31.90;1.00;;;;;;5081930;28;20420;-81
2022/05/11 13:53:54;;;;;;;9.40;5.23;;;32.20;1.00;;;;;;5085903;28;20431;-81
2022/05/11 13:56:25;;;;;;;9.03;4.90;;;32.40;1.00;;;;;;5083476;28;20443;-84
2022/05/11 13:59:19;;;;;;;9.93;4.87;;;32.40;1.00;;;;;;5084797;28;20583;-84
2022/05/11 14:01:53;;;;;;;8.47;4.40;;;31.90;1.00;;;;;;5082169;28;20428;-83
2022/05/11 14:04:26;;;;;;;10.13;4.90;;;31.50;1.00;;;;;;5084623;28;20526;-82
2022/05/11 14:07:04;;;;;;;12.70;4.63;;;31.20;1.00;;;;;;5086078;28;20489;-86
2022/05/11 14:09:41;;;;;;;12.63;4.20;;;31.60;1.00;;;;;;5086216;28;20529;-83
2022/05/11 14:12:13;;;;;;;9.17;4.50;;;33.20;1.00;;;;;;5080779;28;20423;-82
2022/05/11 14:14:42;;;;;;;10.17;4.10;;;33.90;1.00;;;;;;5081876;28;20456;-82
2022/05/11 14:17:22;;;;;;;15.40;4.40;;;33.60;1.00;;;;;;5084631;28;20437;-83